sensor_id;sensor_type;location;lat;lon;timestamp;P1;durP1;ratioP1;P2;durP2;ratioP2
70946;SDS011;58605;48.700;8.760;2023-08-12T00:00:22;6.50;;;5.87;;
70946;SDS011;58605;48.700;8.760;2023-08-12T00:02:48;6.77;;;6.07;;
70946;SDS011;58605;48.700;8.760;2023-08-12T00:05:14;7.13;;;6.40;;
70946;SDS011;58605;48.700;8.760;2023-08-12T00:07:40;7.10;;;6.10;;
70946;SDS011;58605;48.700;8.760;2023-08-12T00:10:10;8.60;;;5.63;;
70946;SDS011;58605;48.700;8.760;2023-08-12T00:12:37;9.57;;;6.17;;
70946;SDS011;58605;48.700;8.760;2023-08-12T00:15:04;8.53;;;6.90;;
70946;SDS011;58605;48.700;8.760;2023-08-12T00:17:31;8.07;;;6.63;;
70946;SDS011;58605;48.700;8.760;2023-08-12T00:19:58;9.20;;;6.27;;
70946;SDS011;58605;48.700;8.760;2023-08-12T00:22:24;10.17;;;7.07;;
70946;SDS011;58605;48.700;8.760;2023-08-12T00:24:51;8.80;;;7.23;;
70946;SDS011;58605;48.700;8.760;2023-08-12T00:27:19;10.93;;;6.93;;
70946;SDS011;58605;48.700;8.760;2023-08-12T00:29:45;8.57;;;7.63;;
70946;SDS011;58605;48.700;8.760;2023-08-12T00:32:11;8.15;;;7.22;;
70946;SDS011;58605;48.700;8.760;2023-08-12T00:34:39;8.37;;;7.10;;
70946;SDS011;58605;48.700;8.760;2023-08-12T00:37:05;8.03;;;5.93;;
70946;SDS011;58605;48.700;8.760;2023-08-12T00:39:31;8.07;;;6.30;;
70946;SDS011;58605;48.700;8.760;2023-08-12T00:41:57;8.27;;;6.90;;
70946;SDS011;58605;48.700;8.760;2023-08-12T00:44:25;11.07;;;7.13;;
70946;SDS011;58605;48.700;8.760;2023-08-12T00:46:51;9.07;;;7.60;;
70946;SDS011;58605;48.700;8.760;2023-08-12T00:49:20;10.33;;;8.03;;
70946;SDS011;58605;48.700;8.760;2023-08-12T00:51:47;8.75;;;6.90;;
70946;SDS011;58605;48.700;8.760;2023-08-12T00:54:18;8.23;;;7.03;;
70946;SDS011;58605;48.700;8.760;2023-08-12T00:56:46;7.82;;;7.00;;
70946;SDS011;58605;48.700;8.760;2023-08-12T00:59:13;7.27;;;6.40;;
70946;SDS011;58605;48.700;8.760;2023-08-12T01:04:36;12.30;;;7.50;;
70946;SDS011;58605;48.700;8.760;2023-08-12T01:07:02;8.13;;;6.47;;
70946;SDS011;58605;48.700;8.760;2023-08-12T01:09:29;8.85;;;7.13;;
70946;SDS011;58605;48.700;8.760;2023-08-12T01:11:57;8.25;;;7.45;;
70946;SDS011;58605;48.700;8.760;2023-08-12T01:14:32;10.67;;;8.47;;
70946;SDS011;58605;48.700;8.760;2023-08-12T01:17:04;9.80;;;6.93;;
70946;SDS011;58605;48.700;8.760;2023-08-12T01:19:35;9.80;;;8.33;;
70946;SDS011;58605;48.700;8.760;2023-08-12T01:22:04;11.10;;;9.77;;
70946;SDS011;58605;48.700;8.760;2023-08-12T01:24:38;12.33;;;10.20;;
70946;SDS011;58605;48.700;8.760;2023-08-12T01:27:05;12.63;;;9.77;;
70946;SDS011;58605;48.700;8.760;2023-08-12T01:29:31;10.90;;;9.80;;
70946;SDS011;58605;48.700;8.760;2023-08-12T01:32:00;10.05;;;8.02;;
70946;SDS011;58605;48.700;8.760;2023-08-12T01:34:35;10.83;;;8.23;;
70946;SDS011;58605;48.700;8.760;2023-08-12T01:37:08;11.40;;;8.13;;
70946;SDS011;58605;48.700;8.760;2023-08-12T01:39:38;12.27;;;6.43;;
70946;SDS011;58605;48.700;8.760;2023-08-12T01:42:06;12.30;;;6.93;;
70946;SDS011;58605;48.700;8.760;2023-08-12T01:44:33;9.23;;;7.17;;
70946;SDS011;58605;48.700;8.760;2023-08-12T01:46:59;7.72;;;6.05;;
70946;SDS011;58605;48.700;8.760;2023-08-12T01:49:26;7.67;;;5.60;;
70946;SDS011;58605;48.700;8.760;2023-08-12T01:51:52;7.70;;;6.03;;
70946;SDS011;58605;48.700;8.760;2023-08-12T01:54:19;6.78;;;6.05;;
70946;SDS011;58605;48.700;8.760;2023-08-12T01:56:46;9.17;;;5.97;;
70946;SDS011;58605;48.700;8.760;2023-08-12T01:59:12;8.80;;;7.10;;
70946;SDS011;58605;48.700;8.760;2023-08-12T02:01:39;7.97;;;6.03;;
70946;SDS011;58605;48.700;8.760;2023-08-12T02:04:05;9.30;;;7.10;;
70946;SDS011;58605;48.700;8.760;2023-08-12T02:06:31;7.73;;;6.33;;
70946;SDS011;58605;48.700;8.760;2023-08-12T02:08:57;7.67;;;6.63;;
70946;SDS011;58605;48.700;8.760;2023-08-12T02:11:23;9.27;;;6.45;;
70946;SDS011;58605;48.700;8.760;2023-08-12T02:13:51;6.63;;;6.03;;
70946;SDS011;58605;48.700;8.760;2023-08-12T02:16:17;8.07;;;6.87;;
70946;SDS011;58605;48.700;8.760;2023-08-12T02:18:43;9.27;;;7.13;;
70946;SDS011;58605;48.700;8.760;2023-08-12T02:21:09;8.53;;;6.93;;
70946;SDS011;58605;48.700;8.760;2023-08-12T02:23:35;11.30;;;6.77;;
70946;SDS011;58605;48.700;8.760;2023-08-12T02:26:01;8.25;;;6.93;;
70946;SDS011;58605;48.700;8.760;2023-08-12T02:28:28;10.80;;;6.90;;
70946;SDS011;58605;48.700;8.760;2023-08-12T02:30:55;7.60;;;6.10;;
70946;SDS011;58605;48.700;8.760;2023-08-12T02:33:21;6.70;;;5.85;;
70946;SDS011;58605;48.700;8.760;2023-08-12T02:35:52;8.93;;;5.55;;
70946;SDS011;58605;48.700;8.760;2023-08-12T02:38:19;8.20;;;6.13;;
70946;SDS011;58605;48.700;8.760;2023-08-12T02:40:47;9.30;;;6.60;;
70946;SDS011;58605;48.700;8.760;2023-08-12T02:43:14;8.73;;;6.00;;
70946;SDS011;58605;48.700;8.760;2023-08-12T02:45:40;8.50;;;7.25;;
70946;SDS011;58605;48.700;8.760;2023-08-12T02:48:08;12.43;;;6.47;;
70946;SDS011;58605;48.700;8.760;2023-08-12T02:50:34;7.75;;;6.72;;
70946;SDS011;58605;48.700;8.760;2023-08-12T02:53:02;6.87;;;5.70;;
70946;SDS011;58605;48.700;8.760;2023-08-12T02:55:28;8.27;;;6.20;;
70946;SDS011;58605;48.700;8.760;2023-08-12T02:57:54;6.40;;;5.75;;
70946;SDS011;58605;48.700;8.760;2023-08-12T03:00:20;10.95;;;5.85;;
70946;SDS011;58605;48.700;8.760;2023-08-12T03:02:47;6.70;;;6.00;;
70946;SDS011;58605;48.700;8.760;2023-08-12T03:05:14;7.63;;;5.70;;
70946;SDS011;58605;48.700;8.760;2023-08-12T03:07:41;6.85;;;6.10;;
70946;SDS011;58605;48.700;8.760;2023-08-12T03:10:07;9.02;;;6.65;;
70946;SDS011;58605;48.700;8.760;2023-08-12T03:12:34;9.90;;;6.80;;
70946;SDS011;58605;48.700;8.760;2023-08-12T03:15:00;8.65;;;6.13;;
70946;SDS011;58605;48.700;8.760;2023-08-12T03:17:27;7.20;;;5.85;;
70946;SDS011;58605;48.700;8.760;2023-08-12T03:19:53;7.72;;;6.28;;
70946;SDS011;58605;48.700;8.760;2023-08-12T03:22:23;8.77;;;5.63;;
70946;SDS011;58605;48.700;8.760;2023-08-12T03:24:49;6.07;;;5.40;;
70946;SDS011;58605;48.700;8.760;2023-08-12T03:27:15;12.02;;;5.78;;
70946;SDS011;58605;48.700;8.760;2023-08-12T03:29:41;7.20;;;5.83;;
70946;SDS011;58605;48.700;8.760;2023-08-12T03:32:07;8.50;;;7.03;;
70946;SDS011;58605;48.700;8.760;2023-08-12T03:34:33;8.00;;;5.90;;
70946;SDS011;58605;48.700;8.760;2023-08-12T03:37:00;5.78;;;5.00;;
70946;SDS011;58605;48.700;8.760;2023-08-12T03:39:27;7.87;;;6.20;;
70946;SDS011;58605;48.700;8.760;2023-08-12T03:41:54;6.37;;;5.77;;
70946;SDS011;58605;48.700;8.760;2023-08-12T03:44:20;8.93;;;6.17;;
70946;SDS011;58605;48.700;8.760;2023-08-12T03:46:46;7.53;;;5.60;;
70946;SDS011;58605;48.700;8.760;2023-08-12T03:52:07;5.77;;;5.17;;
70946;SDS011;58605;48.700;8.760;2023-08-12T03:54:35;7.50;;;6.00;;
70946;SDS011;58605;48.700;8.760;2023-08-12T03:57:01;16.10;;;6.77;;
70946;SDS011;58605;48.700;8.760;2023-08-12T03:59:28;6.47;;;5.87;;
70946;SDS011;58605;48.700;8.760;2023-08-12T04:01:54;7.63;;;5.80;;
70946;SDS011;58605;48.700;8.760;2023-08-12T04:04:20;8.63;;;6.33;;
70946;SDS011;58605;48.700;8.760;2023-08-12T04:06:46;8.52;;;6.97;;
70946;SDS011;58605;48.700;8.760;2023-08-12T04:09:16;8.43;;;6.40;;
70946;SDS011;58605;48.700;8.760;2023-08-12T04:11:44;7.73;;;6.30;;
70946;SDS011;58605;48.700;8.760;2023-08-12T04:14:10;8.43;;;6.38;;
70946;SDS011;58605;48.700;8.760;2023-08-12T04:16:36;9.55;;;6.68;;
70946;SDS011;58605;48.700;8.760;2023-08-12T04:19:03;9.13;;;6.07;;
70946;SDS011;58605;48.700;8.760;2023-08-12T04:21:29;9.60;;;7.05;;
70946;SDS011;58605;48.700;8.760;2023-08-12T04:23:55;8.90;;;6.25;;
70946;SDS011;58605;48.700;8.760;2023-08-12T04:26:21;9.20;;;6.78;;
70946;SDS011;58605;48.700;8.760;2023-08-12T04:28:49;9.30;;;6.50;;
70946;SDS011;58605;48.700;8.760;2023-08-12T04:31:16;9.03;;;6.77;;
70946;SDS011;58605;48.700;8.760;2023-08-12T04:33:42;10.30;;;6.93;;
70946;SDS011;58605;48.700;8.760;2023-08-12T04:36:08;9.00;;;7.13;;
70946;SDS011;58605;48.700;8.760;2023-08-12T04:38:34;7.43;;;6.57;;
70946;SDS011;58605;48.700;8.760;2023-08-12T04:41:01;8.00;;;6.47;;
70946;SDS011;58605;48.700;8.760;2023-08-12T04:43:27;8.48;;;6.80;;
70946;SDS011;58605;48.700;8.760;2023-08-12T04:45:55;7.85;;;6.63;;
70946;SDS011;58605;48.700;8.760;2023-08-12T04:48:21;7.60;;;6.25;;
70946;SDS011;58605;48.700;8.760;2023-08-12T04:50:47;8.07;;;5.82;;
70946;SDS011;58605;48.700;8.760;2023-08-12T04:53:13;10.88;;;6.22;;
70946;SDS011;58605;48.700;8.760;2023-08-12T04:55:39;11.77;;;6.35;;
70946;SDS011;58605;48.700;8.760;2023-08-12T04:58:05;6.78;;;6.07;;
70946;SDS011;58605;48.700;8.760;2023-08-12T05:00:31;8.43;;;6.27;;
70946;SDS011;58605;48.700;8.760;2023-08-12T05:02:59;8.40;;;7.50;;
70946;SDS011;58605;48.700;8.760;2023-08-12T05:05:25;8.57;;;6.27;;
70946;SDS011;58605;48.700;8.760;2023-08-12T05:07:52;7.95;;;6.85;;
70946;SDS011;58605;48.700;8.760;2023-08-12T05:10:18;7.65;;;6.85;;
70946;SDS011;58605;48.700;8.760;2023-08-12T05:12:44;7.43;;;6.47;;
70946;SDS011;58605;48.700;8.760;2023-08-12T05:15:11;10.20;;;6.73;;
70946;SDS011;58605;48.700;8.760;2023-08-12T05:17:37;7.47;;;6.35;;
70946;SDS011;58605;48.700;8.760;2023-08-12T05:20:06;7.85;;;6.60;;
70946;SDS011;58605;48.700;8.760;2023-08-12T05:22:34;8.40;;;6.43;;
70946;SDS011;58605;48.700;8.760;2023-08-12T05:25:00;8.38;;;6.72;;
70946;SDS011;58605;48.700;8.760;2023-08-12T05:27:26;7.75;;;6.32;;
70946;SDS011;58605;48.700;8.760;2023-08-12T05:29:52;7.65;;;5.78;;
70946;SDS011;58605;48.700;8.760;2023-08-12T05:32:18;11.38;;;6.00;;
70946;SDS011;58605;48.700;8.760;2023-08-12T05:34:44;6.70;;;6.00;;
70946;SDS011;58605;48.700;8.760;2023-08-12T05:37:12;7.55;;;6.13;;
70946;SDS011;58605;48.700;8.760;2023-08-12T05:39:38;7.80;;;5.40;;
70946;SDS011;58605;48.700;8.760;2023-08-12T05:42:04;8.10;;;5.00;;
70946;SDS011;58605;48.700;8.760;2023-08-12T05:44:30;7.45;;;5.93;;
70946;SDS011;58605;48.700;8.760;2023-08-12T05:46:56;9.13;;;6.60;;
70946;SDS011;58605;48.700;8.760;2023-08-12T05:49:22;10.20;;;7.23;;
70946;SDS011;58605;48.700;8.760;2023-08-12T05:51:49;8.30;;;7.47;;
70946;SDS011;58605;48.700;8.760;2023-08-12T05:54:16;7.82;;;6.55;;
70946;SDS011;58605;48.700;8.760;2023-08-12T05:56:42;9.52;;;7.30;;
70946;SDS011;58605;48.700;8.760;2023-08-12T05:59:08;12.02;;;7.60;;
70946;SDS011;58605;48.700;8.760;2023-08-12T06:01:34;8.50;;;7.57;;
70946;SDS011;58605;48.700;8.760;2023-08-12T06:04:01;9.65;;;7.68;;
70946;SDS011;58605;48.700;8.760;2023-08-12T06:06:27;8.57;;;7.68;;
70946;SDS011;58605;48.700;8.760;2023-08-12T06:08:53;21.33;;;8.20;;
70946;SDS011;58605;48.700;8.760;2023-08-12T06:11:21;8.40;;;7.32;;
70946;SDS011;58605;48.700;8.760;2023-08-12T06:13:47;9.40;;;7.30;;
70946;SDS011;58605;48.700;8.760;2023-08-12T06:16:13;8.40;;;6.63;;
70946;SDS011;58605;48.700;8.760;2023-08-12T06:18:39;7.82;;;7.03;;
70946;SDS011;58605;48.700;8.760;2023-08-12T06:21:05;7.88;;;7.00;;
70946;SDS011;58605;48.700;8.760;2023-08-12T06:23:32;8.40;;;7.50;;
70946;SDS011;58605;48.700;8.760;2023-08-12T06:26:04;6.07;;;5.47;;
70946;SDS011;58605;48.700;8.760;2023-08-12T06:28:32;6.72;;;5.05;;
70946;SDS011;58605;48.700;8.760;2023-08-12T06:30:58;7.57;;;6.28;;
70946;SDS011;58605;48.700;8.760;2023-08-12T06:33:24;6.43;;;5.70;;
70946;SDS011;58605;48.700;8.760;2023-08-12T06:35:50;8.55;;;6.03;;
70946;SDS011;58605;48.700;8.760;2023-08-12T06:38:16;8.43;;;6.20;;
70946;SDS011;58605;48.700;8.760;2023-08-12T06:40:42;6.28;;;5.43;;
70946;SDS011;58605;48.700;8.760;2023-08-12T06:43:09;7.30;;;6.43;;
70946;SDS011;58605;48.700;8.760;2023-08-12T06:45:37;7.75;;;6.10;;
70946;SDS011;58605;48.700;8.760;2023-08-12T06:48:03;8.70;;;5.32;;
70946;SDS011;58605;48.700;8.760;2023-08-12T06:50:29;11.88;;;5.07;;
70946;SDS011;58605;48.700;8.760;2023-08-12T06:52:57;7.50;;;6.32;;
70946;SDS011;58605;48.700;8.760;2023-08-12T06:55:23;6.93;;;5.95;;
70946;SDS011;58605;48.700;8.760;2023-08-12T06:57:49;7.93;;;6.93;;
70946;SDS011;58605;48.700;8.760;2023-08-12T07:00:15;7.45;;;6.50;;
70946;SDS011;58605;48.700;8.760;2023-08-12T07:02:43;9.77;;;6.75;;
70946;SDS011;58605;48.700;8.760;2023-08-12T07:05:09;8.35;;;6.55;;
70946;SDS011;58605;48.700;8.760;2023-08-12T07:07:35;11.82;;;7.35;;
70946;SDS011;58605;48.700;8.760;2023-08-12T07:10:01;9.23;;;7.00;;
70946;SDS011;58605;48.700;8.760;2023-08-12T07:12:27;10.32;;;7.00;;
70946;SDS011;58605;48.700;8.760;2023-08-12T07:14:53;10.68;;;7.22;;
70946;SDS011;58605;48.700;8.760;2023-08-12T07:17:19;8.88;;;7.40;;
70946;SDS011;58605;48.700;8.760;2023-08-12T07:19:47;9.30;;;6.18;;
70946;SDS011;58605;48.700;8.760;2023-08-12T07:22:13;8.05;;;6.55;;
70946;SDS011;58605;48.700;8.760;2023-08-12T07:24:41;10.23;;;6.95;;
70946;SDS011;58605;48.700;8.760;2023-08-12T07:27:07;7.43;;;5.90;;
70946;SDS011;58605;48.700;8.760;2023-08-12T07:29:33;6.22;;;5.57;;
70946;SDS011;58605;48.700;8.760;2023-08-12T07:31:59;8.05;;;4.88;;
70946;SDS011;58605;48.700;8.760;2023-08-12T07:34:25;10.52;;;5.45;;
70946;SDS011;58605;48.700;8.760;2023-08-12T07:36:53;9.07;;;6.30;;
70946;SDS011;58605;48.700;8.760;2023-08-12T07:39:19;9.07;;;4.97;;
70946;SDS011;58605;48.700;8.760;2023-08-12T07:41:45;8.85;;;5.35;;
70946;SDS011;58605;48.700;8.760;2023-08-12T07:44:12;5.60;;;5.10;;
70946;SDS011;58605;48.700;8.760;2023-08-12T07:46:38;6.53;;;5.13;;
70946;SDS011;58605;48.700;8.760;2023-08-12T07:49:04;7.25;;;4.78;;
70946;SDS011;58605;48.700;8.760;2023-08-12T07:51:30;6.50;;;5.10;;
70946;SDS011;58605;48.700;8.760;2023-08-12T07:53:58;6.15;;;5.00;;
70946;SDS011;58605;48.700;8.760;2023-08-12T07:56:24;7.28;;;5.10;;
70946;SDS011;58605;48.700;8.760;2023-08-12T07:58:50;8.73;;;5.32;;
70946;SDS011;58605;48.700;8.760;2023-08-12T08:01:16;6.90;;;5.15;;
70946;SDS011;58605;48.700;8.760;2023-08-12T08:03:42;8.02;;;5.30;;
70946;SDS011;58605;48.700;8.760;2023-08-12T08:06:09;5.30;;;4.65;;
70946;SDS011;58605;48.700;8.760;2023-08-12T08:08:35;5.60;;;4.85;;
70946;SDS011;58605;48.700;8.760;2023-08-12T08:11:03;9.55;;;4.57;;
70946;SDS011;58605;48.700;8.760;2023-08-12T08:13:29;5.40;;;4.20;;
70946;SDS011;58605;48.700;8.760;2023-08-12T08:16:04;5.82;;;4.35;;
70946;SDS011;58605;48.700;8.760;2023-08-12T08:18:36;8.43;;;5.40;;
70946;SDS011;58605;48.700;8.760;2023-08-12T08:21:03;5.95;;;5.10;;
70946;SDS011;58605;48.700;8.760;2023-08-12T08:23:29;6.45;;;4.53;;
70946;SDS011;58605;48.700;8.760;2023-08-12T08:25:55;6.15;;;4.93;;
70946;SDS011;58605;48.700;8.760;2023-08-12T08:28:23;6.30;;;5.55;;
70946;SDS011;58605;48.700;8.760;2023-08-12T08:30:49;5.47;;;4.32;;
70946;SDS011;58605;48.700;8.760;2023-08-12T08:33:15;5.32;;;4.68;;
70946;SDS011;58605;48.700;8.760;2023-08-12T08:35:41;3.58;;;3.28;;
70946;SDS011;58605;48.700;8.760;2023-08-12T08:38:08;3.60;;;3.28;;
70946;SDS011;58605;48.700;8.760;2023-08-12T08:40:34;5.25;;;3.90;;
70946;SDS011;58605;48.700;8.760;2023-08-12T08:43:02;5.20;;;4.20;;
70946;SDS011;58605;48.700;8.760;2023-08-12T08:45:31;5.43;;;4.20;;
70946;SDS011;58605;48.700;8.760;2023-08-12T08:47:59;7.47;;;3.95;;
70946;SDS011;58605;48.700;8.760;2023-08-12T08:50:26;4.78;;;3.50;;
70946;SDS011;58605;48.700;8.760;2023-08-12T08:52:53;4.53;;;4.05;;
70946;SDS011;58605;48.700;8.760;2023-08-12T08:55:21;4.72;;;3.50;;
70946;SDS011;58605;48.700;8.760;2023-08-12T08:57:47;3.80;;;3.20;;
70946;SDS011;58605;48.700;8.760;2023-08-12T09:00:14;3.63;;;3.08;;
70946;SDS011;58605;48.700;8.760;2023-08-12T09:02:45;3.80;;;3.40;;
70946;SDS011;58605;48.700;8.760;2023-08-12T09:05:16;3.72;;;3.33;;
70946;SDS011;58605;48.700;8.760;2023-08-12T09:07:42;5.43;;;3.33;;
70946;SDS011;58605;48.700;8.760;2023-08-12T09:10:10;3.28;;;2.97;;
70946;SDS011;58605;48.700;8.760;2023-08-12T09:12:37;3.42;;;2.90;;
70946;SDS011;58605;48.700;8.760;2023-08-12T09:15:03;4.60;;;3.17;;
70946;SDS011;58605;48.700;8.760;2023-08-12T09:17:31;3.88;;;2.88;;
70946;SDS011;58605;48.700;8.760;2023-08-12T09:19:59;3.90;;;3.30;;
70946;SDS011;58605;48.700;8.760;2023-08-12T09:22:36;4.95;;;3.63;;
70946;SDS011;58605;48.700;8.760;2023-08-12T09:25:03;5.68;;;3.92;;
70946;SDS011;58605;48.700;8.760;2023-08-12T09:27:30;5.07;;;3.38;;
70946;SDS011;58605;48.700;8.760;2023-08-12T09:29:56;3.97;;;2.80;;
70946;SDS011;58605;48.700;8.760;2023-08-12T09:32:25;5.15;;;3.45;;
70946;SDS011;58605;48.700;8.760;2023-08-12T09:34:51;5.47;;;3.35;;
70946;SDS011;58605;48.700;8.760;2023-08-12T09:37:21;6.25;;;4.03;;
70946;SDS011;58605;48.700;8.760;2023-08-12T09:39:48;4.15;;;2.60;;
70946;SDS011;58605;48.700;8.760;2023-08-12T09:42:16;14.55;;;2.55;;
70946;SDS011;58605;48.700;8.760;2023-08-12T09:44:42;4.38;;;3.47;;
70946;SDS011;58605;48.700;8.760;2023-08-12T09:47:08;5.30;;;3.00;;
70946;SDS011;58605;48.700;8.760;2023-08-12T09:49:35;5.45;;;3.67;;
70946;SDS011;58605;48.700;8.760;2023-08-12T09:52:01;3.20;;;2.70;;
70946;SDS011;58605;48.700;8.760;2023-08-12T09:54:30;6.72;;;3.10;;
70946;SDS011;58605;48.700;8.760;2023-08-12T09:56:57;3.38;;;2.80;;
70946;SDS011;58605;48.700;8.760;2023-08-12T09:59:24;3.72;;;2.78;;
70946;SDS011;58605;48.700;8.760;2023-08-12T10:01:56;2.80;;;2.60;;
70946;SDS011;58605;48.700;8.760;2023-08-12T10:04:23;3.47;;;3.15;;
70946;SDS011;58605;48.700;8.760;2023-08-12T10:06:54;5.43;;;2.92;;
70946;SDS011;58605;48.700;8.760;2023-08-12T10:09:20;3.20;;;2.70;;
70946;SDS011;58605;48.700;8.760;2023-08-12T10:11:48;4.32;;;2.53;;
70946;SDS011;58605;48.700;8.760;2023-08-12T10:14:15;3.42;;;2.70;;
70946;SDS011;58605;48.700;8.760;2023-08-12T10:16:41;3.80;;;2.92;;
70946;SDS011;58605;48.700;8.760;2023-08-12T10:19:11;2.85;;;2.40;;
70946;SDS011;58605;48.700;8.760;2023-08-12T10:21:37;3.65;;;2.20;;
70946;SDS011;58605;48.700;8.760;2023-08-12T10:24:04;4.28;;;2.47;;
70946;SDS011;58605;48.700;8.760;2023-08-12T10:26:32;2.97;;;2.22;;
70946;SDS011;58605;48.700;8.760;2023-08-12T10:29:00;3.15;;;2.30;;
70946;SDS011;58605;48.700;8.760;2023-08-12T10:31:27;2.53;;;2.30;;
70946;SDS011;58605;48.700;8.760;2023-08-12T10:33:54;5.78;;;2.95;;
70946;SDS011;58605;48.700;8.760;2023-08-12T10:36:23;2.70;;;2.33;;
70946;SDS011;58605;48.700;8.760;2023-08-12T10:38:51;3.80;;;2.70;;
70946;SDS011;58605;48.700;8.760;2023-08-12T10:41:17;3.70;;;2.38;;
70946;SDS011;58605;48.700;8.760;2023-08-12T10:43:54;6.70;;;3.05;;
70946;SDS011;58605;48.700;8.760;2023-08-12T10:46:22;2.60;;;2.40;;
70946;SDS011;58605;48.700;8.760;2023-08-12T10:48:56;3.08;;;2.47;;
70946;SDS011;58605;48.700;8.760;2023-08-12T10:51:41;2.85;;;2.45;;
70946;SDS011;58605;48.700;8.760;2023-08-12T10:54:15;2.42;;;2.15;;
70946;SDS011;58605;48.700;8.760;2023-08-12T10:59:52;2.53;;;2.33;;
70946;SDS011;58605;48.700;8.760;2023-08-12T11:02:22;3.60;;;2.25;;
70946;SDS011;58605;48.700;8.760;2023-08-12T11:04:52;3.13;;;2.47;;
70946;SDS011;58605;48.700;8.760;2023-08-12T11:07:19;2.97;;;2.22;;
70946;SDS011;58605;48.700;8.760;2023-08-12T11:09:52;2.50;;;2.28;;
70946;SDS011;58605;48.700;8.760;2023-08-12T11:12:18;3.90;;;2.60;;
70946;SDS011;58605;48.700;8.760;2023-08-12T11:14:54;4.13;;;2.30;;
70946;SDS011;58605;48.700;8.760;2023-08-12T11:17:28;4.28;;;2.28;;
70946;SDS011;58605;48.700;8.760;2023-08-12T11:19:57;3.47;;;2.10;;
70946;SDS011;58605;48.700;8.760;2023-08-12T11:22:24;2.83;;;2.20;;
70946;SDS011;58605;48.700;8.760;2023-08-12T11:24:50;3.20;;;2.05;;
70946;SDS011;58605;48.700;8.760;2023-08-12T11:27:16;5.03;;;3.08;;
70946;SDS011;58605;48.700;8.760;2023-08-12T11:29:43;3.15;;;2.80;;
70946;SDS011;58605;48.700;8.760;2023-08-12T11:32:09;3.42;;;2.33;;
70946;SDS011;58605;48.700;8.760;2023-08-12T11:34:38;2.95;;;2.17;;
70946;SDS011;58605;48.700;8.760;2023-08-12T11:37:05;3.88;;;2.28;;
70946;SDS011;58605;48.700;8.760;2023-08-12T11:39:31;4.57;;;2.83;;
70946;SDS011;58605;48.700;8.760;2023-08-12T11:41:57;3.53;;;2.92;;
70946;SDS011;58605;48.700;8.760;2023-08-12T11:44:24;3.03;;;2.55;;
70946;SDS011;58605;48.700;8.760;2023-08-12T11:46:50;3.00;;;2.45;;
70946;SDS011;58605;48.700;8.760;2023-08-12T11:49:16;3.65;;;2.60;;
70946;SDS011;58605;48.700;8.760;2023-08-12T11:51:44;3.88;;;2.80;;
70946;SDS011;58605;48.700;8.760;2023-08-12T11:54:16;5.18;;;2.83;;
70946;SDS011;58605;48.700;8.760;2023-08-12T11:56:42;5.03;;;3.15;;
70946;SDS011;58605;48.700;8.760;2023-08-12T11:59:09;4.47;;;3.08;;
70946;SDS011;58605;48.700;8.760;2023-08-12T12:01:36;6.70;;;3.47;;
70946;SDS011;58605;48.700;8.760;2023-08-12T12:04:02;4.22;;;2.92;;
70946;SDS011;58605;48.700;8.760;2023-08-12T12:06:29;4.43;;;3.03;;
70946;SDS011;58605;48.700;8.760;2023-08-12T12:08:59;7.45;;;3.17;;
70946;SDS011;58605;48.700;8.760;2023-08-12T12:11:29;3.38;;;2.25;;
70946;SDS011;58605;48.700;8.760;2023-08-12T12:13:55;3.45;;;2.95;;
70946;SDS011;58605;48.700;8.760;2023-08-12T12:16:21;6.80;;;3.20;;
70946;SDS011;58605;48.700;8.760;2023-08-12T12:18:47;5.07;;;3.33;;
70946;SDS011;58605;48.700;8.760;2023-08-12T12:21:19;5.15;;;3.28;;
70946;SDS011;58605;48.700;8.760;2023-08-12T12:23:47;4.10;;;2.30;;
70946;SDS011;58605;48.700;8.760;2023-08-12T12:26:14;4.72;;;2.65;;
70946;SDS011;58605;48.700;8.760;2023-08-12T12:28:42;4.65;;;2.97;;
70946;SDS011;58605;48.700;8.760;2023-08-12T12:31:08;5.95;;;3.65;;
70946;SDS011;58605;48.700;8.760;2023-08-12T12:33:34;6.15;;;3.70;;
70946;SDS011;58605;48.700;8.760;2023-08-12T12:36:00;4.70;;;3.35;;
70946;SDS011;58605;48.700;8.760;2023-08-12T12:38:26;6.53;;;3.53;;
70946;SDS011;58605;48.700;8.760;2023-08-12T12:40:52;6.15;;;4.15;;
70946;SDS011;58605;48.700;8.760;2023-08-12T12:43:20;6.18;;;3.85;;
70946;SDS011;58605;48.700;8.760;2023-08-12T12:45:46;5.20;;;3.15;;
70946;SDS011;58605;48.700;8.760;2023-08-12T12:48:12;3.88;;;2.47;;
70946;SDS011;58605;48.700;8.760;2023-08-12T12:50:38;3.38;;;2.65;;
70946;SDS011;58605;48.700;8.760;2023-08-12T12:53:04;6.78;;;3.53;;
70946;SDS011;58605;48.700;8.760;2023-08-12T12:55:30;5.35;;;3.78;;
70946;SDS011;58605;48.700;8.760;2023-08-12T12:57:56;4.85;;;2.85;;
70946;SDS011;58605;48.700;8.760;2023-08-12T13:00:24;5.78;;;3.55;;
70946;SDS011;58605;48.700;8.760;2023-08-12T13:02:50;2.75;;;2.40;;
70946;SDS011;58605;48.700;8.760;2023-08-12T13:05:16;6.68;;;4.25;;
70946;SDS011;58605;48.700;8.760;2023-08-12T13:07:43;2.95;;;2.63;;
70946;SDS011;58605;48.700;8.760;2023-08-12T13:10:09;5.60;;;2.60;;
70946;SDS011;58605;48.700;8.760;2023-08-12T13:12:35;5.55;;;3.28;;
70946;SDS011;58605;48.700;8.760;2023-08-12T13:15:01;3.92;;;2.63;;
70946;SDS011;58605;48.700;8.760;2023-08-12T13:17:29;5.38;;;2.90;;
70946;SDS011;58605;48.700;8.760;2023-08-12T13:19:55;3.08;;;2.75;;
70946;SDS011;58605;48.700;8.760;2023-08-12T13:22:21;4.57;;;3.80;;
70946;SDS011;58605;48.700;8.760;2023-08-12T13:24:47;4.72;;;2.95;;
70946;SDS011;58605;48.700;8.760;2023-08-12T13:27:13;4.38;;;2.75;;
70946;SDS011;58605;48.700;8.760;2023-08-12T13:29:39;6.35;;;2.83;;
70946;SDS011;58605;48.700;8.760;2023-08-12T13:32:06;3.65;;;2.47;;
70946;SDS011;58605;48.700;8.760;2023-08-12T13:34:33;3.40;;;2.80;;
70946;SDS011;58605;48.700;8.760;2023-08-12T13:37:00;5.68;;;2.97;;
70946;SDS011;58605;48.700;8.760;2023-08-12T13:39:26;3.35;;;2.58;;
70946;SDS011;58605;48.700;8.760;2023-08-12T13:41:52;4.35;;;3.47;;
70946;SDS011;58605;48.700;8.760;2023-08-12T13:44:20;4.80;;;3.50;;
70946;SDS011;58605;48.700;8.760;2023-08-12T13:46:46;7.13;;;4.07;;
70946;SDS011;58605;48.700;8.760;2023-08-12T13:49:12;4.47;;;3.50;;
70946;SDS011;58605;48.700;8.760;2023-08-12T13:51:39;4.97;;;3.60;;
70946;SDS011;58605;48.700;8.760;2023-08-12T13:54:05;5.10;;;4.18;;
70946;SDS011;58605;48.700;8.760;2023-08-12T13:56:31;6.65;;;4.40;;
70946;SDS011;58605;48.700;8.760;2023-08-12T13:58:58;7.93;;;3.67;;
70946;SDS011;58605;48.700;8.760;2023-08-12T14:01:24;5.22;;;3.45;;
70946;SDS011;58605;48.700;8.760;2023-08-12T14:03:50;6.20;;;3.72;;
70946;SDS011;58605;48.700;8.760;2023-08-12T14:06:16;5.35;;;3.50;;
70946;SDS011;58605;48.700;8.760;2023-08-12T14:08:44;3.40;;;3.10;;
70946;SDS011;58605;48.700;8.760;2023-08-12T14:11:10;3.15;;;2.85;;
70946;SDS011;58605;48.700;8.760;2023-08-12T14:13:36;5.80;;;3.33;;
70946;SDS011;58605;48.700;8.760;2023-08-12T14:16:02;4.55;;;2.42;;
70946;SDS011;58605;48.700;8.760;2023-08-12T14:18:28;5.65;;;3.60;;
70946;SDS011;58605;48.700;8.760;2023-08-12T14:20:55;4.70;;;3.22;;
70946;SDS011;58605;48.700;8.760;2023-08-12T14:23:21;3.90;;;3.33;;
70946;SDS011;58605;48.700;8.760;2023-08-12T14:25:49;3.22;;;2.90;;
70946;SDS011;58605;48.700;8.760;2023-08-12T14:28:15;6.38;;;4.00;;
70946;SDS011;58605;48.700;8.760;2023-08-12T14:33:36;4.78;;;3.42;;
70946;SDS011;58605;48.700;8.760;2023-08-12T14:36:02;4.65;;;3.20;;
70946;SDS011;58605;48.700;8.760;2023-08-12T14:38:29;5.78;;;3.08;;
70946;SDS011;58605;48.700;8.760;2023-08-12T14:40:58;3.88;;;3.15;;
70946;SDS011;58605;48.700;8.760;2023-08-12T14:43:24;4.47;;;3.78;;
70946;SDS011;58605;48.700;8.760;2023-08-12T14:45:50;7.07;;;4.93;;
70946;SDS011;58605;48.700;8.760;2023-08-12T14:48:16;5.93;;;4.32;;
70946;SDS011;58605;48.700;8.760;2023-08-12T14:50:43;6.65;;;4.88;;
70946;SDS011;58605;48.700;8.760;2023-08-12T14:53:09;6.97;;;4.15;;
70946;SDS011;58605;48.700;8.760;2023-08-12T14:55:35;7.78;;;4.57;;